createdAt,value
2022-09-15T00:01:13.861Z,17.17
2022-09-15T00:03:42.251Z,11.57
2022-09-15T00:06:10.316Z,16.25
2022-09-15T00:08:38.212Z,12.32
2022-09-15T00:11:24.194Z,14.27
2022-09-15T00:13:53.768Z,14.00
2022-09-15T00:16:23.120Z,10.38
2022-09-15T00:18:52.267Z,11.38
2022-09-15T00:21:23.452Z,16.90
2022-09-15T00:23:51.626Z,7.50
2022-09-15T00:26:28.722Z,13.13
2022-09-15T00:28:58.023Z,8.80
2022-09-15T00:31:28.229Z,10.57
2022-09-15T00:33:57.697Z,7.90
2022-09-15T00:36:27.148Z,18.52
2022-09-15T00:38:55.400Z,12.05
2022-09-15T00:41:24.392Z,8.33
2022-09-15T00:46:39.143Z,11.95
2022-09-15T00:49:14.445Z,14.27
2022-09-15T00:51:52.827Z,16.13
2022-09-15T00:54:27.115Z,18.80
2022-09-15T00:57:00.204Z,10.60
2022-09-15T00:59:30.756Z,19.77
2022-09-15T01:02:13.224Z,9.63
2022-09-15T01:04:41.036Z,12.13
2022-09-15T01:07:15.007Z,9.80
2022-09-15T01:09:52.133Z,9.30
2022-09-15T01:12:21.001Z,14.07
2022-09-15T01:14:48.656Z,13.43
2022-09-15T01:17:26.390Z,11.77
2022-09-15T01:20:17.770Z,18.85
2022-09-15T01:23:10.287Z,18.58
2022-09-15T01:26:08.602Z,9.98
2022-09-15T01:28:58.176Z,10.93
2022-09-15T01:32:06.806Z,14.95
2022-09-15T01:37:17.627Z,9.88
2022-09-15T01:39:48.203Z,18.23
2022-09-15T01:42:18.431Z,11.82
2022-09-15T01:44:56.027Z,14.65
2022-09-15T01:47:26.767Z,19.35
2022-09-15T01:49:59.900Z,22.85
2022-09-15T01:52:29.203Z,10.75
2022-09-15T01:55:01.804Z,16.58
2022-09-15T01:57:29.679Z,10.60
2022-09-15T01:59:57.641Z,11.32
2022-09-15T02:02:31.331Z,11.32
2022-09-15T02:05:37.570Z,10.48
2022-09-15T02:08:25.588Z,10.32
2022-09-15T02:11:21.090Z,12.50
2022-09-15T02:14:04.073Z,15.18
2022-09-15T02:16:35.113Z,13.82
2022-09-15T02:19:35.645Z,14.23
2022-09-15T02:22:23.460Z,15.98
2022-09-15T02:25:03.779Z,12.32
2022-09-15T02:27:37.867Z,14.63
2022-09-15T02:30:09.842Z,8.43
2022-09-15T02:32:41.885Z,9.10
2022-09-15T02:35:10.904Z,12.18
2022-09-15T02:40:08.010Z,15.10
2022-09-15T02:42:36.018Z,20.05
2022-09-15T02:45:06.818Z,8.15
2022-09-15T02:47:34.416Z,13.43
2022-09-15T02:50:02.178Z,11.93
2022-09-15T02:52:29.989Z,7.72
2022-09-15T02:54:57.525Z,6.75
2022-09-15T02:57:25.312Z,9.55
2022-09-15T03:00:11.587Z,16.05
2022-09-15T03:02:40.288Z,9.80
2022-09-15T03:05:09.396Z,6.93
2022-09-15T03:07:38.154Z,18.08
2022-09-15T03:10:08.132Z,6.55
2022-09-15T03:12:43.650Z,13.10
2022-09-15T03:15:13.174Z,8.98
2022-09-15T03:17:42.811Z,10.88
2022-09-15T03:20:12.704Z,12.13
2022-09-15T03:22:40.718Z,11.63
2022-09-15T03:25:09.925Z,18.23
2022-09-15T03:27:38.589Z,8.98
2022-09-15T03:30:07.667Z,7.95
2022-09-15T03:32:37.458Z,14.50
2022-09-15T03:35:06.920Z,14.48
2022-09-15T03:37:34.825Z,12.65
2022-09-15T03:40:03.901Z,11.30
2022-09-15T03:42:32.500Z,9.15
2022-09-15T03:45:00.474Z,20.00
2022-09-15T03:47:28.147Z,10.80
2022-09-15T03:49:55.718Z,10.15
2022-09-15T03:52:23.331Z,11.90
2022-09-15T03:54:50.861Z,8.07
2022-09-15T03:57:18.524Z,10.30
2022-09-15T03:59:46.520Z,10.32
2022-09-15T04:02:14.491Z,11.50
2022-09-15T04:04:42.226Z,12.83
2022-09-15T04:07:11.195Z,7.72
2022-09-15T04:09:39.269Z,9.85
2022-09-15T04:12:07.091Z,12.00
2022-09-15T04:14:34.966Z,13.70
2022-09-15T04:17:02.668Z,8.82
2022-09-15T04:19:31.376Z,11.38
2022-09-15T04:21:59.207Z,16.43
2022-09-15T04:24:28.407Z,10.13
2022-09-15T04:26:56.171Z,8.13
2022-09-15T04:29:24.859Z,16.08
2022-09-15T04:31:53.350Z,10.77
2022-09-15T04:34:21.032Z,7.28
2022-09-15T04:39:17.373Z,6.82
2022-09-15T04:41:44.936Z,11.77
2022-09-15T04:44:12.619Z,11.52
2022-09-15T04:46:40.333Z,12.18
2022-09-15T04:49:08.047Z,9.50
2022-09-15T04:51:36.020Z,12.60
2022-09-15T04:54:03.665Z,9.23
2022-09-15T04:56:31.207Z,9.75
2022-09-15T04:59:03.955Z,5.22
2022-09-15T05:01:34.594Z,11.15
2022-09-15T05:04:04.135Z,4.85
2022-09-15T05:06:32.642Z,9.30
2022-09-15T05:09:00.511Z,7.63
2022-09-15T05:11:31.192Z,20.45
2022-09-15T05:14:00.058Z,9.38
2022-09-15T05:16:29.428Z,9.98
2022-09-15T05:18:59.976Z,16.63
2022-09-15T05:21:28.232Z,13.30
2022-09-15T05:23:56.413Z,16.40
2022-09-15T05:26:28.938Z,7.03
2022-09-15T05:28:57.629Z,6.82
2022-09-15T05:31:31.184Z,12.02
2022-09-15T05:34:02.080Z,8.80
2022-09-15T05:36:30.250Z,14.20
2022-09-15T05:38:58.226Z,5.60
2022-09-15T05:41:27.659Z,5.90
2022-09-15T05:43:57.452Z,12.85
2022-09-15T05:46:26.280Z,13.45
2022-09-15T05:53:51.139Z,8.32
2022-09-15T05:56:19.226Z,7.88
2022-09-15T05:58:48.836Z,12.95
2022-09-15T06:01:24.437Z,10.02
2022-09-15T06:03:53.374Z,8.80
2022-09-15T06:06:22.166Z,7.97
2022-09-15T06:11:27.684Z,12.32
2022-09-15T06:13:55.775Z,15.05
2022-09-15T06:16:24.521Z,10.43
2022-09-15T06:18:53.665Z,5.55
2022-09-15T06:21:24.407Z,8.23
2022-09-15T06:24:00.362Z,11.38
2022-09-15T06:26:29.031Z,12.55
2022-09-15T06:29:00.295Z,8.80
2022-09-15T06:31:31.655Z,15.55
2022-09-15T06:34:00.026Z,8.43
2022-09-15T06:36:32.520Z,8.32
2022-09-15T06:39:00.468Z,12.05
2022-09-15T06:41:47.406Z,11.48
2022-09-15T06:44:20.511Z,12.93
2022-09-15T06:46:49.215Z,18.88
2022-09-15T06:49:17.367Z,11.50
2022-09-15T06:51:45.544Z,13.00
2022-09-15T06:54:14.685Z,10.10
2022-09-15T06:56:43.478Z,10.18
2022-09-15T06:59:15.744Z,10.73
2022-09-15T07:01:43.970Z,11.35
2022-09-15T07:04:11.531Z,13.13
2022-09-15T07:06:40.343Z,16.25
2022-09-15T07:09:08.697Z,9.82
2022-09-15T07:11:36.417Z,9.05
2022-09-15T07:14:04.427Z,14.60
2022-09-15T07:16:32.056Z,9.57
2022-09-15T07:19:01.975Z,11.45
2022-09-15T07:21:29.642Z,10.98
2022-09-15T07:23:58.296Z,13.68
2022-09-15T07:26:29.625Z,10.38
2022-09-15T07:28:59.711Z,11.18
2022-09-15T07:31:31.246Z,19.73
2022-09-15T07:34:00.198Z,12.93
2022-09-15T07:36:28.700Z,12.68
2022-09-15T07:38:56.369Z,9.73
2022-09-15T07:41:26.527Z,9.43
2022-09-15T07:43:56.313Z,16.42
2022-09-15T07:46:25.216Z,5.13
2022-09-15T07:51:23.302Z,9.48
2022-09-15T07:53:52.211Z,10.48
2022-09-15T07:58:48.110Z,7.05
2022-09-15T08:01:16.989Z,9.27
2022-09-15T08:06:14.484Z,12.52
2022-09-15T08:08:44.124Z,8.00
2022-09-15T08:11:19.510Z,8.85
2022-09-15T08:13:49.597Z,10.10
2022-09-15T08:16:19.894Z,7.35
2022-09-15T08:18:47.801Z,8.55
2022-09-15T08:21:20.430Z,15.07
2022-09-15T08:23:53.152Z,11.10
2022-09-15T08:26:20.924Z,11.52
2022-09-15T08:28:49.452Z,5.15
2022-09-15T08:31:17.656Z,10.50
2022-09-15T08:33:50.168Z,10.48
2022-09-15T08:36:18.156Z,11.73
2022-09-15T08:38:46.781Z,10.05
2022-09-15T08:41:29.702Z,18.90
2022-09-15T08:44:01.115Z,10.63
2022-09-15T08:46:45.609Z,9.80
2022-09-15T08:49:40.858Z,8.55
2022-09-15T08:52:18.265Z,6.80
2022-09-15T08:54:46.074Z,11.73
2022-09-15T08:57:20.509Z,13.43
2022-09-15T08:59:48.315Z,10.52
2022-09-15T09:02:49.231Z,8.93
2022-09-15T09:05:31.934Z,19.73
2022-09-15T09:08:24.346Z,10.48
2022-09-15T09:11:14.858Z,13.10
2022-09-15T09:13:56.710Z,8.35
2022-09-15T09:16:27.118Z,5.78
2022-09-15T09:19:32.265Z,13.38
2022-09-15T09:22:16.409Z,8.18
2022-09-15T09:24:50.350Z,14.05
2022-09-15T09:27:24.066Z,5.88
2022-09-15T09:30:19.066Z,6.65
2022-09-15T09:33:00.709Z,11.85
2022-09-15T09:35:51.598Z,17.15
2022-09-15T09:38:24.910Z,8.57
2022-09-15T09:40:53.245Z,10.32
2022-09-15T09:43:20.964Z,5.85
2022-09-15T09:45:48.731Z,7.22
2022-09-15T09:48:26.426Z,9.52
2022-09-15T09:50:55.340Z,12.27
2022-09-15T09:56:15.958Z,7.50
2022-09-15T09:58:46.273Z,10.93
2022-09-15T10:01:16.383Z,9.23
2022-09-15T10:03:46.881Z,10.32
2022-09-15T10:06:19.713Z,7.30
2022-09-15T10:09:03.849Z,9.30
2022-09-15T10:12:03.803Z,8.30
2022-09-15T10:14:42.328Z,8.95
2022-09-15T10:17:13.175Z,13.40
2022-09-15T10:19:58.380Z,10.77
2022-09-15T10:22:39.663Z,5.60
2022-09-15T10:25:44.185Z,8.30
2022-09-15T10:28:18.831Z,4.47
2022-09-15T10:31:06.528Z,9.32
2022-09-15T10:33:35.503Z,12.10
2022-09-15T10:38:49.221Z,8.88
2022-09-15T10:41:23.108Z,5.85
2022-09-15T10:44:23.033Z,7.15
2022-09-15T10:47:12.502Z,6.55
2022-09-15T10:49:45.889Z,4.05
2022-09-15T10:52:26.698Z,8.88
2022-09-15T10:55:27.629Z,7.68
2022-09-15T10:58:26.346Z,4.63
2022-09-15T11:01:03.156Z,9.02
2022-09-15T11:03:48.970Z,5.88
2022-09-15T11:06:29.033Z,4.07
2022-09-15T11:09:08.925Z,10.23
2022-09-15T11:12:00.658Z,9.43
2022-09-15T11:14:57.923Z,3.53
2022-09-15T11:17:48.954Z,5.78
2022-09-15T11:20:28.168Z,6.07
2022-09-15T11:23:04.598Z,4.47
2022-09-15T11:25:35.867Z,4.22
2022-09-15T11:28:06.538Z,5.70
2022-09-15T11:31:11.542Z,4.63
2022-09-15T11:33:48.398Z,4.10
2022-09-15T11:36:41.700Z,4.22
2022-09-15T11:39:24.131Z,3.63
2022-09-15T11:42:20.833Z,5.85
2022-09-15T11:44:49.708Z,8.48
2022-09-15T11:47:34.059Z,4.07
2022-09-15T11:50:27.863Z,7.78
2022-09-15T11:53:05.227Z,6.18
2022-09-15T11:56:00.260Z,6.00
2022-09-15T11:58:33.879Z,5.32
2022-09-15T12:01:15.548Z,7.47
2022-09-15T12:04:01.947Z,4.45
2022-09-15T12:06:45.429Z,5.07
2022-09-15T12:09:16.648Z,4.75
2022-09-15T12:11:50.657Z,7.13
2022-09-15T12:14:29.026Z,4.40
2022-09-15T12:16:58.125Z,14.02
2022-09-15T12:19:44.506Z,7.35
2022-09-15T12:22:19.284Z,10.40
2022-09-15T12:25:05.625Z,7.13
2022-09-15T12:27:33.339Z,5.68
2022-09-15T12:30:01.614Z,6.72
2022-09-15T12:32:30.310Z,6.60
2022-09-15T12:37:37.747Z,7.75
2022-09-15T12:40:08.360Z,6.65
2022-09-15T12:42:37.228Z,5.22
2022-09-15T12:45:24.497Z,7.32
2022-09-15T12:48:02.057Z,3.45
2022-09-15T12:50:37.181Z,5.90
2022-09-15T12:53:15.055Z,5.50
2022-09-15T12:55:51.966Z,3.17
2022-09-15T12:58:36.896Z,4.32
2022-09-15T13:01:24.816Z,6.50
2022-09-15T13:04:04.263Z,3.40
2022-09-15T13:06:35.291Z,6.70
2022-09-15T13:09:03.814Z,7.07
2022-09-15T13:11:35.011Z,4.10
2022-09-15T13:14:08.593Z,3.40
2022-09-15T13:16:46.126Z,6.70
2022-09-15T13:19:35.956Z,7.15
2022-09-15T13:22:17.110Z,4.90
2022-09-15T13:24:59.292Z,8.82
2022-09-15T13:27:35.247Z,6.05
2022-09-15T13:30:21.472Z,6.13
2022-09-15T13:33:06.394Z,6.72
2022-09-15T13:36:19.861Z,2.83
2022-09-15T13:38:56.592Z,3.90
2022-09-15T13:41:46.305Z,7.63
2022-09-15T13:44:18.079Z,5.80
2022-09-15T13:47:16.459Z,6.20
2022-09-15T13:50:10.818Z,7.22
2022-09-15T13:53:16.805Z,3.20
2022-09-15T13:55:45.669Z,2.15
2022-09-15T14:01:07.606Z,4.68
2022-09-15T14:03:50.911Z,3.65
2022-09-15T14:06:23.159Z,6.10
2022-09-15T14:08:57.485Z,9.30
2022-09-15T14:11:29.994Z,8.25
2022-09-15T14:13:59.589Z,4.90
2022-09-15T14:16:28.957Z,2.65
2022-09-15T14:18:59.094Z,6.50
2022-09-15T14:21:32.907Z,4.00
2022-09-15T14:24:06.359Z,7.80
2022-09-15T14:26:35.921Z,6.72
2022-09-15T14:29:05.960Z,8.98
2022-09-15T14:31:37.470Z,5.63
2022-09-15T14:34:17.363Z,4.60
2022-09-15T14:36:45.958Z,5.32
2022-09-15T14:39:20.084Z,4.93
2022-09-15T14:41:48.854Z,3.78
2022-09-15T14:47:20.345Z,5.43
2022-09-15T14:49:49.126Z,2.67
2022-09-15T14:52:32.132Z,3.38
2022-09-15T14:55:05.378Z,3.25
2022-09-15T14:57:37.695Z,3.97
2022-09-15T15:00:15.764Z,8.02
2022-09-15T15:03:18.152Z,3.07
2022-09-15T15:05:58.077Z,6.85
2022-09-15T15:08:45.617Z,4.05
2022-09-15T15:11:17.531Z,3.22
2022-09-15T15:13:49.670Z,4.32
2022-09-15T15:16:21.077Z,3.38
2022-09-15T15:18:51.479Z,3.10
2022-09-15T15:21:38.412Z,6.05
2022-09-15T15:24:19.530Z,3.83
2022-09-15T15:26:49.402Z,2.95
2022-09-15T15:29:39.875Z,1.88
2022-09-15T15:32:13.539Z,4.10
2022-09-15T15:34:52.200Z,4.15
2022-09-15T15:37:27.165Z,3.42
2022-09-15T15:39:57.197Z,4.60
2022-09-15T15:42:26.171Z,4.10
2022-09-15T15:45:05.469Z,4.90
2022-09-15T15:47:36.704Z,2.85
2022-09-15T15:50:16.765Z,3.47
2022-09-15T15:52:45.018Z,2.78
2022-09-15T15:55:15.489Z,4.28
2022-09-15T15:57:44.142Z,6.78
2022-09-15T16:00:22.320Z,3.67
2022-09-15T16:02:51.457Z,1.55
2022-09-15T16:05:22.225Z,1.35
2022-09-15T16:07:52.463Z,4.18
2022-09-15T16:10:23.246Z,1.70
2022-09-15T16:12:50.976Z,2.28
2022-09-15T16:15:22.117Z,1.52
2022-09-15T16:17:49.758Z,3.25
2022-09-15T16:20:19.941Z,2.67
2022-09-15T16:22:47.863Z,2.60
2022-09-15T16:25:29.058Z,2.40
2022-09-15T16:27:56.799Z,8.73
2022-09-15T16:30:24.522Z,2.67
2022-09-15T16:32:52.197Z,2.67
2022-09-15T16:35:43.269Z,4.45
2022-09-15T16:38:10.946Z,2.67
2022-09-15T16:40:39.628Z,1.48
2022-09-15T16:43:12.777Z,4.40
2022-09-15T16:45:42.187Z,3.88
2022-09-15T16:49:00.821Z,2.17
2022-09-15T16:51:31.563Z,4.05
2022-09-15T16:53:59.622Z,2.08
2022-09-15T16:56:27.584Z,4.80
2022-09-15T16:59:00.094Z,2.22
2022-09-15T17:01:28.381Z,1.83
2022-09-15T17:03:58.691Z,3.95
2022-09-15T17:06:28.965Z,5.30
2022-09-15T17:08:59.049Z,1.80
2022-09-15T17:11:28.815Z,1.75
2022-09-15T17:13:58.526Z,6.78
2022-09-15T17:16:29.869Z,2.38
2022-09-15T17:18:59.492Z,3.05
2022-09-15T17:21:28.004Z,1.48
2022-09-15T17:23:55.907Z,1.52
2022-09-15T17:26:30.527Z,2.60
2022-09-15T17:28:59.380Z,2.92
2022-09-15T17:31:28.149Z,4.18
2022-09-15T17:33:55.889Z,2.55
2022-09-15T17:36:30.554Z,1.73
2022-09-15T17:39:01.095Z,1.98
2022-09-15T17:41:29.597Z,2.42
2022-09-15T17:44:00.813Z,4.93
2022-09-15T17:46:31.143Z,6.28
2022-09-15T17:48:58.810Z,2.50
2022-09-15T17:51:26.515Z,2.88
2022-09-15T17:53:55.036Z,1.50
2022-09-15T17:56:22.637Z,2.22
2022-09-15T17:58:50.225Z,3.53
2022-09-15T18:01:19.005Z,5.75
2022-09-15T18:06:14.975Z,7.97
2022-09-15T18:08:43.024Z,5.32
2022-09-15T18:11:13.849Z,2.10
2022-09-15T18:13:43.186Z,2.88
2022-09-15T18:16:13.715Z,0.73
2022-09-15T18:18:41.957Z,5.10
2022-09-15T18:21:21.828Z,3.03
2022-09-15T18:23:49.542Z,2.65
2022-09-15T18:26:17.322Z,2.60
2022-09-15T18:28:45.018Z,2.20
2022-09-15T18:31:14.638Z,4.95
2022-09-15T18:33:42.370Z,3.72
2022-09-15T18:36:10.850Z,1.88
2022-09-15T18:38:38.398Z,4.53
2022-09-15T18:41:10.802Z,5.80
2022-09-15T18:43:38.484Z,4.40
2022-09-15T18:46:06.185Z,7.60
2022-09-15T18:48:33.942Z,2.60
2022-09-15T18:51:01.541Z,3.30
2022-09-15T18:53:30.104Z,7.85
2022-09-15T18:56:23.254Z,10.55
2022-09-15T18:58:53.854Z,5.18
2022-09-15T19:01:21.955Z,5.40
2022-09-15T19:03:49.599Z,4.15
2022-09-15T19:06:17.172Z,3.60
2022-09-15T19:08:44.701Z,4.22
2022-09-15T19:11:12.722Z,6.05
2022-09-15T19:13:40.394Z,5.72
2022-09-15T19:16:09.435Z,5.00
2022-09-15T19:21:10.763Z,6.13
2022-09-15T19:23:39.311Z,4.20
2022-09-15T19:26:09.453Z,1.38
2022-09-15T19:28:37.112Z,9.80
2022-09-15T19:31:05.421Z,3.88
2022-09-15T19:33:33.054Z,3.67
2022-09-15T19:36:26.970Z,1.17
2022-09-15T19:38:54.463Z,2.67
2022-09-15T19:41:22.067Z,8.25
2022-09-15T19:43:49.650Z,2.85
2022-09-15T19:46:20.542Z,10.68
2022-09-15T19:48:50.196Z,6.00
2022-09-15T19:51:18.699Z,5.70
2022-09-15T19:53:47.142Z,5.85
2022-09-15T19:56:22.390Z,6.30
2022-09-15T19:58:50.225Z,3.67
2022-09-15T20:01:18.355Z,6.78
2022-09-15T20:06:32.667Z,3.80
2022-09-15T20:09:00.983Z,3.88
2022-09-15T20:11:30.420Z,8.43
2022-09-15T20:13:58.552Z,8.30
2022-09-15T20:16:27.890Z,9.45
2022-09-15T20:18:56.964Z,6.30
2022-09-15T20:21:49.279Z,4.60
2022-09-15T20:24:19.775Z,6.20
2022-09-15T20:26:47.592Z,5.28
2022-09-15T20:29:15.822Z,6.07
2022-09-15T20:31:43.866Z,2.33
2022-09-15T20:34:11.613Z,2.13
2022-09-15T20:36:40.181Z,2.85
2022-09-15T20:39:13.544Z,4.07
2022-09-15T20:41:45.223Z,5.97
2022-09-15T20:44:13.054Z,3.20
2022-09-15T20:46:40.928Z,5.35
2022-09-15T20:49:09.498Z,3.83
2022-09-15T20:51:37.357Z,3.47
2022-09-15T20:54:05.803Z,5.90
2022-09-15T20:56:35.444Z,5.10
2022-09-15T20:59:04.566Z,4.40
2022-09-15T21:04:02.325Z,12.63
2022-09-15T21:06:30.135Z,5.27
2022-09-15T21:08:59.568Z,5.32
2022-09-15T21:11:32.313Z,5.57
2022-09-15T21:14:01.759Z,4.90
2022-09-15T21:16:30.069Z,8.07
2022-09-15T21:18:59.397Z,3.03
2022-09-15T21:21:32.295Z,7.65
2022-09-15T21:24:04.251Z,7.53
2022-09-15T21:27:01.138Z,5.85
2022-09-15T21:29:29.276Z,5.40
2022-09-15T21:31:58.179Z,4.57
2022-09-15T21:34:29.447Z,4.65
2022-09-15T21:36:58.055Z,6.72
2022-09-15T21:39:25.602Z,5.93
2022-09-15T21:41:54.694Z,6.03
2022-09-15T21:44:22.715Z,7.82
2022-09-15T21:46:53.277Z,6.30
2022-09-15T21:49:25.021Z,7.63
2022-09-15T21:51:53.425Z,5.93
2022-09-15T21:54:21.942Z,4.03
2022-09-15T21:56:50.653Z,4.13
2022-09-15T21:59:19.155Z,8.63
2022-09-15T22:01:47.209Z,2.92
2022-09-15T22:04:15.214Z,7.75
2022-09-15T22:06:43.891Z,5.43
2022-09-15T22:09:44.053Z,5.22
2022-09-15T22:12:12.455Z,7.53
2022-09-15T22:14:42.484Z,5.22
2022-09-15T22:17:10.478Z,5.65
2022-09-15T22:19:38.144Z,8.30
2022-09-15T22:22:06.631Z,6.75
2022-09-15T22:24:34.786Z,5.10
2022-09-15T22:27:03.272Z,8.77
2022-09-15T22:29:31.253Z,9.90
2022-09-15T22:31:59.174Z,7.63
2022-09-15T22:34:27.020Z,5.68
2022-09-15T22:36:54.837Z,7.07
2022-09-15T22:39:27.003Z,7.25
2022-09-15T22:42:06.457Z,4.55
2022-09-15T22:44:34.522Z,8.93
2022-09-15T22:47:02.532Z,4.10
2022-09-15T22:49:30.534Z,2.60
2022-09-15T22:51:58.518Z,5.95
2022-09-15T22:54:29.292Z,3.95
2022-09-15T22:56:57.184Z,4.47
2022-09-15T22:59:25.051Z,7.05
2022-09-15T23:01:52.761Z,12.57
2022-09-15T23:04:20.802Z,5.63
2022-09-15T23:06:49.172Z,9.07
2022-09-15T23:09:16.865Z,6.25
2022-09-15T23:11:44.626Z,6.75
2022-09-15T23:14:18.033Z,8.02
2022-09-15T23:16:45.788Z,9.68
2022-09-15T23:19:14.065Z,4.25
2022-09-15T23:21:41.855Z,7.13
2022-09-15T23:24:12.480Z,7.95
2022-09-15T23:26:40.580Z,8.52
2022-09-15T23:29:08.374Z,13.82
2022-09-15T23:31:36.292Z,7.28
2022-09-15T23:34:04.024Z,7.05
2022-09-15T23:36:31.709Z,6.20
2022-09-15T23:38:59.443Z,5.00
2022-09-15T23:41:27.386Z,5.68
2022-09-15T23:43:55.648Z,5.55
2022-09-15T23:46:23.321Z,7.15
2022-09-15T23:48:51.222Z,3.80
2022-09-15T23:51:19.014Z,4.03
2022-09-15T23:53:46.979Z,6.22
2022-09-15T23:56:14.686Z,6.13
2022-09-15T23:58:42.340Z,3.50
